CSC779 ZPLJ-ZUUU
Flight info
| Callsign | CSC779 |
|---|---|
| Flight time | N/A |
| Altitude | 29100 |
| Route | SB32D/20 SB W162 KAKMI W144 IGNAK |
| Aircraft | A20N/M-SDE2E3GHIJ1J3J4J5LM1ORWXYZ/LB1D1 |
Departure
| Time | 2026-04-15 13:25 |
|---|---|
| Airport | Lijiang Sanyi International Airport (ZPLJ) |
Arrival
| Time | N/A |
|---|---|
| Airport | Chengdu Shuangliu International Airport (ZUUU) |
| Time | Latitude | Longitude | Altitude | Speed | Heading |
|---|---|---|---|---|---|
| 2026-04-15 13:06 | 26.67318 | 100.24604 | 7364 ft | 0 kts | 107° |
| 2026-04-15 13:18 | 26.67317 | 100.24606 | 7365 ft | 0 kts | 107° |
| 2026-04-15 13:18 | 26.67316 | 100.24612 | 7365 ft | 1 kts | 107° |
| 2026-04-15 13:19 | 26.67313 | 100.24622 | 7365 ft | 1 kts | 106° |
| 2026-04-15 13:19 | 26.67313 | 100.24635 | 7365 ft | 1 kts | 66° |
| 2026-04-15 13:19 | 26.67325 | 100.24644 | 7365 ft | 2 kts | 20° |
| 2026-04-15 13:19 | 26.67341 | 100.24642 | 7365 ft | 2 kts | 331° |
| 2026-04-15 13:20 | 26.67351 | 100.24623 | 7365 ft | 3 kts | 291° |
| 2026-04-15 13:20 | 26.67359 | 100.24598 | 7365 ft | 3 kts | 288° |
| 2026-04-15 13:20 | 26.67370 | 100.24571 | 7365 ft | 4 kts | 304° |
| 2026-04-15 13:20 | 26.67395 | 100.24558 | 7365 ft | 4 kts | 2° |
| 2026-04-15 13:21 | 26.67433 | 100.24569 | 7365 ft | 9 kts | 17° |
| 2026-04-15 13:21 | 26.67514 | 100.24596 | 7365 ft | 14 kts | 17° |
| 2026-04-15 13:21 | 26.67627 | 100.24635 | 7365 ft | 19 kts | 17° |
| 2026-04-15 13:21 | 26.67766 | 100.24683 | 7365 ft | 23 kts | 17° |
| 2026-04-15 13:22 | 26.67932 | 100.24739 | 7365 ft | 26 kts | 17° |
| 2026-04-15 13:22 | 26.68112 | 100.24801 | 7365 ft | 27 kts | 17° |
| 2026-04-15 13:22 | 26.68289 | 100.24862 | 7365 ft | 25 kts | 17° |
| 2026-04-15 13:22 | 26.68451 | 100.24918 | 7365 ft | 23 kts | 17° |
| 2026-04-15 13:23 | 26.68605 | 100.24970 | 7365 ft | 22 kts | 17° |
| 2026-04-15 13:23 | 26.68748 | 100.25019 | 7365 ft | 20 kts | 17° |
| 2026-04-15 13:23 | 26.68874 | 100.25063 | 7365 ft | 9 kts | 17° |
| 2026-04-15 13:23 | 26.68930 | 100.25064 | 7365 ft | 8 kts | 325° |
| 2026-04-15 13:24 | 26.68957 | 100.25003 | 7365 ft | 9 kts | 286° |
| 2026-04-15 13:24 | 26.68970 | 100.24944 | 7365 ft | 6 kts | 265° |
| 2026-04-15 13:24 | 26.68944 | 100.24905 | 7365 ft | 6 kts | 208° |
| 2026-04-15 13:24 | 26.68892 | 100.24886 | 7365 ft | 13 kts | 196° |
| 2026-04-15 13:25 | 26.68591 | 100.24784 | 7365 ft | 81 kts | 197° |
| 2026-04-15 13:25 | 26.67830 | 100.24522 | 7365 ft | 144 kts | 197° |
| 2026-04-15 13:25 | 26.66700 | 100.24132 | 7492 ft | 184 kts | 197° |
| 2026-04-15 13:25 | 26.65482 | 100.23711 | 8137 ft | 188 kts | 197° |
| 2026-04-15 13:26 | 26.64245 | 100.23285 | 8866 ft | 190 kts | 197° |
| 2026-04-15 13:26 | 26.63006 | 100.22862 | 9425 ft | 193 kts | 197° |
| 2026-04-15 13:26 | 26.61668 | 100.22405 | 9755 ft | 207 kts | 197° |
| 2026-04-15 13:26 | 26.60259 | 100.21925 | 10066 ft | 222 kts | 197° |
| 2026-04-15 13:27 | 26.59248 | 100.21581 | 10272 ft | 233 kts | 197° |
| 2026-04-15 13:27 | 26.57644 | 100.21034 | 10499 ft | 254 kts | 197° |
| 2026-04-15 13:27 | 26.53363 | 100.19578 | 11306 ft | 297 kts | 197° |
| 2026-04-15 13:28 | 26.51452 | 100.18927 | 11633 ft | 314 kts | 197° |
| 2026-04-15 13:28 | 26.49255 | 100.18305 | 11950 ft | 332 kts | 186° |
| 2026-04-15 13:28 | 26.46901 | 100.18547 | 12250 ft | 351 kts | 162° |
| 2026-04-15 13:28 | 26.44740 | 100.19879 | 12542 ft | 368 kts | 139° |
| 2026-04-15 13:29 | 26.43169 | 100.22206 | 12819 ft | 386 kts | 115° |
| 2026-04-15 13:29 | 26.42228 | 100.25064 | 13130 ft | 401 kts | 108° |
| 2026-04-15 13:29 | 26.41374 | 100.28057 | 13441 ft | 414 kts | 108° |
| 2026-04-15 13:29 | 26.40471 | 100.31171 | 14013 ft | 420 kts | 109° |
| 2026-04-15 13:30 | 26.39650 | 100.34276 | 14629 ft | 424 kts | 101° |
| 2026-04-15 13:30 | 26.39567 | 100.37555 | 15194 ft | 430 kts | 83° |
| 2026-04-15 13:30 | 26.40388 | 100.40598 | 15884 ft | 432 kts | 64° |
| 2026-04-15 13:30 | 26.42025 | 100.43253 | 16615 ft | 432 kts | 48° |
| 2026-04-15 13:31 | 26.44043 | 100.45647 | 17359 ft | 432 kts | 46° |
| 2026-04-15 13:31 | 26.46046 | 100.47929 | 18080 ft | 433 kts | 45° |
| 2026-04-15 13:31 | 26.48107 | 100.50285 | 18816 ft | 439 kts | 46° |
| 2026-04-15 13:31 | 26.50255 | 100.52769 | 19576 ft | 445 kts | 46° |
| 2026-04-15 13:32 | 26.52384 | 100.55257 | 20326 ft | 449 kts | 46° |
| 2026-04-15 13:32 | 26.54543 | 100.57798 | 21026 ft | 451 kts | 46° |
| 2026-04-15 13:32 | 26.56651 | 100.60287 | 21463 ft | 456 kts | 46° |
| 2026-04-15 13:32 | 26.58684 | 100.62693 | 21761 ft | 464 kts | 46° |
| 2026-04-15 13:33 | 26.60983 | 100.65417 | 21944 ft | 475 kts | 47° |
| 2026-04-15 13:33 | 26.63291 | 100.68162 | 22173 ft | 484 kts | 47° |
| 2026-04-15 13:33 | 26.65550 | 100.70856 | 22554 ft | 488 kts | 47° |
| 2026-04-15 13:33 | 26.67787 | 100.73687 | 22978 ft | 491 kts | 50° |
| 2026-04-15 13:34 | 26.69987 | 100.76600 | 23375 ft | 494 kts | 50° |
| 2026-04-15 13:34 | 26.72174 | 100.79529 | 23739 ft | 497 kts | 50° |
| 2026-04-15 13:34 | 26.74392 | 100.82507 | 24090 ft | 500 kts | 50° |
| 2026-04-15 13:34 | 26.76624 | 100.85501 | 24532 ft | 500 kts | 50° |
| 2026-04-15 13:35 | 26.78846 | 100.88481 | 25058 ft | 498 kts | 50° |
| 2026-04-15 13:35 | 26.81049 | 100.91434 | 25561 ft | 497 kts | 50° |
| 2026-04-15 13:35 | 26.83216 | 100.94338 | 26025 ft | 496 kts | 50° |
| 2026-04-15 13:35 | 26.85420 | 100.97293 | 26487 ft | 495 kts | 50° |
| 2026-04-15 13:36 | 26.87596 | 101.00211 | 26940 ft | 494 kts | 50° |
| 2026-04-15 13:36 | 26.89769 | 101.03129 | 27389 ft | 493 kts | 49° |
| 2026-04-15 13:36 | 26.91984 | 101.06095 | 27783 ft | 494 kts | 50° |
| 2026-04-15 13:36 | 26.94178 | 101.09032 | 28087 ft | 496 kts | 50° |
| 2026-04-15 13:37 | 26.96357 | 101.11955 | 28376 ft | 498 kts | 51° |
| 2026-04-15 13:37 | 26.98566 | 101.14925 | 28686 ft | 500 kts | 51° |
| 2026-04-15 13:37 | 27.00763 | 101.17919 | 29019 ft | 494 kts | 48° |
| 2026-04-15 13:37 | 27.02942 | 101.20873 | 29076 ft | 497 kts | 47° |
| 2026-04-15 13:38 | 27.07359 | 101.26801 | 29082 ft | 504 kts | 47° |
| 2026-04-15 13:38 | 27.11792 | 101.32764 | 29084 ft | 505 kts | 47° |
| 2026-04-15 13:39 | 27.16259 | 101.38772 | 29084 ft | 505 kts | 47° |
| 2026-04-15 13:39 | 27.20737 | 101.44834 | 29085 ft | 505 kts | 47° |
| 2026-04-15 13:40 | 27.25268 | 101.50905 | 29085 ft | 505 kts | 47° |
| 2026-04-15 13:40 | 27.29802 | 101.56934 | 29085 ft | 505 kts | 47° |
| 2026-04-15 13:41 | 27.34283 | 101.62917 | 29084 ft | 505 kts | 47° |
| 2026-04-15 13:41 | 27.38760 | 101.68926 | 29083 ft | 505 kts | 47° |
| 2026-04-15 13:42 | 27.43243 | 101.74970 | 29084 ft | 505 kts | 47° |
| 2026-04-15 13:42 | 27.47734 | 101.81014 | 29085 ft | 505 kts | 47° |
| 2026-04-15 13:43 | 27.52255 | 101.87099 | 29141 ft | 506 kts | 47° |
| 2026-04-15 13:43 | 27.56738 | 101.93140 | 29185 ft | 505 kts | 47° |
| 2026-04-15 13:44 | 27.61249 | 101.99227 | 29205 ft | 505 kts | 47° |
| 2026-04-15 13:44 | 27.65740 | 102.05297 | 29214 ft | 505 kts | 47° |
| 2026-04-15 13:45 | 27.70224 | 102.11375 | 29216 ft | 506 kts | 48° |
| 2026-04-15 13:47 | 27.84170 | 102.38873 | 29218 ft | 510 kts | 60° |
| 2026-04-15 13:47 | 27.87381 | 102.45991 | 29218 ft | 510 kts | 60° |
| 2026-04-15 13:48 | 27.90594 | 102.53115 | 29217 ft | 510 kts | 60° |
| 2026-04-15 13:48 | 27.93813 | 102.60259 | 29116 ft | 509 kts | 60° |
| 2026-04-15 13:49 | 27.95403 | 102.63795 | 28863 ft | 507 kts | 60° |
| 2026-04-15 13:49 | 27.96987 | 102.67323 | 28613 ft | 506 kts | 61° |
| 2026-04-15 13:49 | 27.98590 | 102.70908 | 28361 ft | 506 kts | 61° |
| 2026-04-15 13:49 | 28.00165 | 102.74434 | 28114 ft | 505 kts | 61° |
| 2026-04-15 13:50 | 28.01747 | 102.77972 | 27864 ft | 505 kts | 61° |
| 2026-04-15 13:50 | 28.03325 | 102.81501 | 27615 ft | 505 kts | 61° |
| 2026-04-15 13:50 | 28.04920 | 102.85067 | 27364 ft | 505 kts | 61° |
| 2026-04-15 13:50 | 28.06500 | 102.88600 | 27115 ft | 505 kts | 61° |
| 2026-04-15 13:51 | 28.08089 | 102.92157 | 26864 ft | 505 kts | 61° |
| 2026-04-15 13:51 | 28.09662 | 102.95679 | 26616 ft | 505 kts | 61° |
| 2026-04-15 13:51 | 28.11262 | 102.99249 | 26488 ft | 506 kts | 61° |
| 2026-04-15 13:51 | 28.12855 | 103.02778 | 26481 ft | 509 kts | 61° |
| 2026-04-15 13:52 | 28.14462 | 103.06348 | 26477 ft | 511 kts | 61° |
| 2026-04-15 13:52 | 28.16074 | 103.09945 | 26475 ft | 513 kts | 62° |
| 2026-04-15 13:52 | 28.17683 | 103.13550 | 26475 ft | 515 kts | 62° |
| 2026-04-15 13:52 | 28.19304 | 103.17193 | 26475 ft | 516 kts | 63° |
| 2026-04-15 13:53 | 28.20911 | 103.20812 | 26475 ft | 517 kts | 63° |
| 2026-04-15 13:53 | 28.22526 | 103.24462 | 26475 ft | 517 kts | 63° |
| 2026-04-15 13:53 | 28.24126 | 103.28085 | 26475 ft | 517 kts | 63° |
| 2026-04-15 13:53 | 28.25733 | 103.31739 | 26475 ft | 517 kts | 64° |
| 2026-04-15 13:54 | 28.26987 | 103.35510 | 26473 ft | 517 kts | 75° |
| 2026-04-15 13:54 | 28.27599 | 103.39254 | 26476 ft | 516 kts | 85° |
| 2026-04-15 13:54 | 28.27638 | 103.42917 | 26477 ft | 514 kts | 95° |
| 2026-04-15 13:54 | 28.27044 | 103.46912 | 26477 ft | 511 kts | 107° |
| 2026-04-15 13:55 | 28.25824 | 103.50638 | 26476 ft | 508 kts | 118° |
| 2026-04-15 13:55 | 28.24007 | 103.54030 | 26475 ft | 504 kts | 129° |
| 2026-04-15 13:55 | 28.21659 | 103.56946 | 26474 ft | 500 kts | 140° |
| 2026-04-15 13:55 | 28.18858 | 103.59275 | 26473 ft | 495 kts | 152° |
| 2026-04-15 13:56 | 28.15758 | 103.60895 | 26471 ft | 490 kts | 163° |
| 2026-04-15 13:56 | 28.12465 | 103.61764 | 26469 ft | 485 kts | 175° |
| 2026-04-15 13:56 | 28.09121 | 103.61851 | 26468 ft | 481 kts | 187° |
| 2026-04-15 13:56 | 28.05875 | 103.61160 | 26467 ft | 477 kts | 198° |
| 2026-04-15 13:57 | 28.02833 | 103.59718 | 26465 ft | 474 kts | 210° |
| 2026-04-15 13:57 | 28.00165 | 103.57610 | 26465 ft | 471 kts | 222° |
| 2026-04-15 13:57 | 27.97926 | 103.54870 | 26465 ft | 470 kts | 234° |
| 2026-04-15 13:57 | 27.96285 | 103.51710 | 26438 ft | 468 kts | 245° |
| 2026-04-15 13:58 | 27.95246 | 103.48228 | 25991 ft | 469 kts | 257° |
| 2026-04-15 13:58 | 27.94880 | 103.44550 | 25493 ft | 471 kts | 265° |
| 2026-04-15 13:58 | 27.94672 | 103.40868 | 24992 ft | 472 kts | 265° |
| 2026-04-15 13:58 | 27.94482 | 103.37178 | 24491 ft | 475 kts | 265° |
| 2026-04-15 13:59 | 27.94288 | 103.33437 | 23985 ft | 475 kts | 265° |
| 2026-04-15 13:59 | 27.94089 | 103.29733 | 23482 ft | 473 kts | 265° |
| 2026-04-15 13:59 | 27.93885 | 103.26023 | 22977 ft | 471 kts | 265° |
| 2026-04-15 13:59 | 27.93680 | 103.22387 | 22479 ft | 468 kts | 265° |
| 2026-04-15 14:00 | 27.93470 | 103.18718 | 21974 ft | 466 kts | 265° |
| 2026-04-15 14:00 | 27.93258 | 103.15087 | 21473 ft | 462 kts | 265° |
| 2026-04-15 14:00 | 27.93044 | 103.11483 | 20972 ft | 459 kts | 266° |
| 2026-04-15 14:00 | 27.92831 | 103.07875 | 20466 ft | 456 kts | 266° |
| 2026-04-15 14:01 | 27.92411 | 103.00778 | 19462 ft | 454 kts | 267° |
| 2026-04-15 14:01 | 27.92201 | 102.97224 | 18958 ft | 454 kts | 268° |
| 2026-04-15 14:01 | 27.91992 | 102.93652 | 18453 ft | 455 kts | 268° |
| 2026-04-15 14:02 | 27.91782 | 102.90079 | 17949 ft | 453 kts | 268° |
| 2026-04-15 14:02 | 27.91573 | 102.86558 | 17449 ft | 451 kts | 267° |
| 2026-04-15 14:02 | 27.91363 | 102.83055 | 16950 ft | 448 kts | 267° |
| 2026-04-15 14:02 | 27.91150 | 102.79543 | 16447 ft | 446 kts | 267° |
| 2026-04-15 14:03 | 27.90939 | 102.76073 | 15949 ft | 443 kts | 267° |
| 2026-04-15 14:03 | 27.90726 | 102.72592 | 15661 ft | 441 kts | 267° |
| 2026-04-15 14:03 | 27.90515 | 102.69160 | 15631 ft | 442 kts | 267° |
| 2026-04-15 14:03 | 27.90298 | 102.65668 | 15631 ft | 443 kts | 267° |
| 2026-04-15 14:04 | 27.90084 | 102.62226 | 15722 ft | 444 kts | 267° |
| 2026-04-15 14:04 | 27.89862 | 102.58748 | 15793 ft | 440 kts | 267° |
| 2026-04-15 14:04 | 27.89637 | 102.55373 | 15831 ft | 417 kts | 267° |
| 2026-04-15 14:04 | 27.89405 | 102.52187 | 15851 ft | 396 kts | 264° |
| 2026-04-15 14:05 | 27.88770 | 102.49262 | 15849 ft | 378 kts | 250° |
| 2026-04-15 14:05 | 27.87696 | 102.46605 | 15566 ft | 369 kts | 244° |
| 2026-04-15 14:05 | 27.86530 | 102.44047 | 15145 ft | 363 kts | 243° |
| 2026-04-15 14:05 | 27.85378 | 102.41560 | 14722 ft | 358 kts | 243° |
| 2026-04-15 14:06 | 27.84233 | 102.39079 | 14296 ft | 354 kts | 242° |
| 2026-04-15 14:06 | 27.82788 | 102.36852 | 13839 ft | 351 kts | 223° |
| 2026-04-15 14:06 | 27.81498 | 102.35797 | 13551 ft | 348 kts | 208° |
| 2026-04-15 14:06 | 27.78874 | 102.34563 | 13055 ft | 343 kts | 199° |
| 2026-04-15 14:07 | 27.76674 | 102.33633 | 12624 ft | 340 kts | 205° |
| 2026-04-15 14:07 | 27.74635 | 102.32332 | 12203 ft | 336 kts | 212° |
| 2026-04-15 14:07 | 27.72698 | 102.30887 | 11771 ft | 333 kts | 218° |
| 2026-04-15 14:07 | 27.71160 | 102.29003 | 11331 ft | 329 kts | 240° |
| 2026-04-15 14:08 | 27.70555 | 102.27425 | 11046 ft | 325 kts | 256° |
| 2026-04-15 14:08 | 27.70511 | 102.24117 | 10482 ft | 318 kts | 286° |
| 2026-04-15 14:08 | 27.71450 | 102.21919 | 10078 ft | 306 kts | 308° |
| 2026-04-15 14:08 | 27.72953 | 102.20359 | 9709 ft | 287 kts | 328° |
| 2026-04-15 14:09 | 27.74726 | 102.19476 | 9388 ft | 271 kts | 346° |
| 2026-04-15 14:09 | 27.76562 | 102.19193 | 9084 ft | 268 kts | 355° |
| 2026-04-15 14:09 | 27.78396 | 102.19143 | 8729 ft | 263 kts | 357° |
| 2026-04-15 14:09 | 27.80221 | 102.19125 | 8379 ft | 262 kts | 356° |
| 2026-04-15 14:10 | 27.82045 | 102.19081 | 8027 ft | 256 kts | 355° |
| 2026-04-15 14:10 | 27.83767 | 102.19020 | 7687 ft | 244 kts | 355° |
| 2026-04-15 14:10 | 27.85431 | 102.18953 | 7368 ft | 235 kts | 354° |
| 2026-04-15 14:10 | 27.87024 | 102.18888 | 7065 ft | 227 kts | 354° |
| 2026-04-15 14:11 | 27.88558 | 102.18829 | 6885 ft | 210 kts | 354° |
| 2026-04-15 14:11 | 27.89507 | 102.18793 | 6690 ft | 202 kts | 354° |
| 2026-04-15 14:12 | 27.93778 | 102.18630 | 5757 ft | 158 kts | 353° |
| 2026-04-15 14:12 | 27.94868 | 102.18587 | 5570 ft | 157 kts | 353° |
| 2026-04-15 14:12 | 27.95962 | 102.18547 | 5366 ft | 157 kts | 354° |
| 2026-04-15 14:12 | 27.97049 | 102.18509 | 5157 ft | 156 kts | 353° |
| 2026-04-15 14:13 | 27.98098 | 102.18461 | 5069 ft | 138 kts | 358° |
| 2026-04-15 14:13 | 27.98877 | 102.18433 | 5076 ft | 88 kts | 359° |
| 2026-04-15 14:13 | 27.99420 | 102.18408 | 5092 ft | 72 kts | 0° |
| 2026-04-15 14:13 | 27.99783 | 102.18398 | 5100 ft | 28 kts | 1° |
| 2026-04-15 14:14 | 27.99831 | 102.18446 | 5101 ft | 9 kts | 79° |
| 2026-04-15 14:14 | 27.99824 | 102.18507 | 5103 ft | 3 kts | 121° |
| 2026-04-15 14:14 | 27.99820 | 102.18515 | 5103 ft | 0 kts | 122° |
| 2026-04-15 14:14 | 27.99802 | 102.18529 | 5104 ft | 4 kts | 155° |
| 2026-04-15 14:15 | 27.99748 | 102.18537 | 5103 ft | 11 kts | 178° |
| 2026-04-15 14:15 | 27.99645 | 102.18540 | 5101 ft | 18 kts | 179° |
| 2026-04-15 14:15 | 27.99491 | 102.18546 | 5096 ft | 25 kts | 177° |
| 2026-04-15 14:16 | 27.99151 | 102.18560 | 5088 ft | 33 kts | 178° |